sensor_id;sensor_type;location;lat;lon;timestamp;P1;durP1;ratioP1;P2;durP2;ratioP2
8704;SDS011;4389;41.932;25.904;2023-11-21T00:02:24;12.00;;;4.63;;
8704;SDS011;4389;41.932;25.904;2023-11-21T00:04:52;6.57;;;4.63;;
8704;SDS011;4389;41.932;25.904;2023-11-21T00:07:20;6.07;;;4.37;;
8704;SDS011;4389;41.932;25.904;2023-11-21T00:09:47;11.87;;;5.07;;
8704;SDS011;4389;41.932;25.904;2023-11-21T00:12:14;6.00;;;3.93;;
8704;SDS011;4389;41.932;25.904;2023-11-21T00:14:42;7.90;;;4.07;;
8704;SDS011;4389;41.932;25.904;2023-11-21T00:17:08;8.40;;;4.40;;
8704;SDS011;4389;41.932;25.904;2023-11-21T00:19:35;7.27;;;4.73;;
8704;SDS011;4389;41.932;25.904;2023-11-21T00:22:02;5.10;;;3.87;;
8704;SDS011;4389;41.932;25.904;2023-11-21T00:24:31;5.23;;;3.53;;
8704;SDS011;4389;41.932;25.904;2023-11-21T00:26:58;5.00;;;3.67;;
8704;SDS011;4389;41.932;25.904;2023-11-21T00:29:24;7.37;;;3.80;;
8704;SDS011;4389;41.932;25.904;2023-11-21T00:31:51;8.30;;;3.93;;
8704;SDS011;4389;41.932;25.904;2023-11-21T00:34:18;4.13;;;3.33;;
8704;SDS011;4389;41.932;25.904;2023-11-21T00:36:45;9.67;;;3.70;;
8704;SDS011;4389;41.932;25.904;2023-11-21T00:39:12;5.47;;;3.60;;
8704;SDS011;4389;41.932;25.904;2023-11-21T00:41:40;4.50;;;3.67;;
8704;SDS011;4389;41.932;25.904;2023-11-21T00:44:07;4.60;;;4.03;;
8704;SDS011;4389;41.932;25.904;2023-11-21T00:46:35;6.57;;;4.23;;
8704;SDS011;4389;41.932;25.904;2023-11-21T00:49:02;4.77;;;4.23;;
8704;SDS011;4389;41.932;25.904;2023-11-21T00:51:29;5.07;;;4.10;;
8704;SDS011;4389;41.932;25.904;2023-11-21T00:53:56;4.27;;;3.70;;
8704;SDS011;4389;41.932;25.904;2023-11-21T00:56:23;5.40;;;4.00;;
8704;SDS011;4389;41.932;25.904;2023-11-21T00:58:51;5.03;;;3.33;;
8704;SDS011;4389;41.932;25.904;2023-11-21T01:01:19;6.70;;;3.57;;
8704;SDS011;4389;41.932;25.904;2023-11-21T01:03:47;8.87;;;3.27;;
8704;SDS011;4389;41.932;25.904;2023-11-21T01:06:14;7.37;;;3.60;;
8704;SDS011;4389;41.932;25.904;2023-11-21T01:08:41;5.97;;;3.27;;
8704;SDS011;4389;41.932;25.904;2023-11-21T01:11:07;7.37;;;4.30;;
8704;SDS011;4389;41.932;25.904;2023-11-21T01:13:37;4.23;;;3.40;;
8704;SDS011;4389;41.932;25.904;2023-11-21T01:16:06;5.30;;;3.20;;
8704;SDS011;4389;41.932;25.904;2023-11-21T01:18:34;3.73;;;3.20;;
8704;SDS011;4389;41.932;25.904;2023-11-21T01:21:01;8.77;;;3.90;;
8704;SDS011;4389;41.932;25.904;2023-11-21T01:23:28;5.20;;;3.07;;
8704;SDS011;4389;41.932;25.904;2023-11-21T01:25:55;3.97;;;3.20;;
8704;SDS011;4389;41.932;25.904;2023-11-21T01:28:23;3.70;;;3.23;;
8704;SDS011;4389;41.932;25.904;2023-11-21T01:30:50;4.97;;;2.80;;
8704;SDS011;4389;41.932;25.904;2023-11-21T01:33:18;3.57;;;3.00;;
8704;SDS011;4389;41.932;25.904;2023-11-21T01:35:45;5.20;;;3.37;;
8704;SDS011;4389;41.932;25.904;2023-11-21T01:38:12;5.83;;;3.30;;
8704;SDS011;4389;41.932;25.904;2023-11-21T01:40:39;5.40;;;3.20;;
8704;SDS011;4389;41.932;25.904;2023-11-21T01:43:06;4.60;;;3.53;;
8704;SDS011;4389;41.932;25.904;2023-11-21T01:45:33;3.70;;;2.90;;
8704;SDS011;4389;41.932;25.904;2023-11-21T01:48:01;7.53;;;4.40;;
8704;SDS011;4389;41.932;25.904;2023-11-21T01:50:30;5.00;;;3.67;;
8704;SDS011;4389;41.932;25.904;2023-11-21T01:52:58;6.60;;;3.43;;
8704;SDS011;4389;41.932;25.904;2023-11-21T01:55:26;8.90;;;3.73;;
8704;SDS011;4389;41.932;25.904;2023-11-21T01:57:55;4.77;;;3.50;;
8704;SDS011;4389;41.932;25.904;2023-11-21T02:00:22;6.03;;;3.83;;
8704;SDS011;4389;41.932;25.904;2023-11-21T02:02:51;9.03;;;3.63;;
8704;SDS011;4389;41.932;25.904;2023-11-21T02:05:18;7.73;;;3.17;;
8704;SDS011;4389;41.932;25.904;2023-11-21T02:07:48;5.23;;;2.83;;
8704;SDS011;4389;41.932;25.904;2023-11-21T02:10:15;5.90;;;3.50;;
8704;SDS011;4389;41.932;25.904;2023-11-21T02:12:47;4.20;;;3.53;;
8704;SDS011;4389;41.932;25.904;2023-11-21T02:15:15;3.80;;;3.40;;
8704;SDS011;4389;41.932;25.904;2023-11-21T02:17:45;7.53;;;3.80;;
8704;SDS011;4389;41.932;25.904;2023-11-21T02:20:12;7.67;;;4.10;;
8704;SDS011;4389;41.932;25.904;2023-11-21T02:22:40;8.03;;;3.50;;
8704;SDS011;4389;41.932;25.904;2023-11-21T02:25:10;6.13;;;3.87;;
8704;SDS011;4389;41.932;25.904;2023-11-21T02:27:38;7.43;;;4.10;;
8704;SDS011;4389;41.932;25.904;2023-11-21T02:30:05;6.03;;;3.33;;
8704;SDS011;4389;41.932;25.904;2023-11-21T02:32:37;5.13;;;4.20;;
8704;SDS011;4389;41.932;25.904;2023-11-21T02:35:05;6.63;;;4.03;;
8704;SDS011;4389;41.932;25.904;2023-11-21T02:37:33;5.07;;;3.80;;
8704;SDS011;4389;41.932;25.904;2023-11-21T02:40:00;5.33;;;3.47;;
8704;SDS011;4389;41.932;25.904;2023-11-21T02:42:30;9.67;;;3.73;;
8704;SDS011;4389;41.932;25.904;2023-11-21T02:44:57;6.23;;;3.80;;
8704;SDS011;4389;41.932;25.904;2023-11-21T02:47:24;88.67;;;9.73;;
8704;SDS011;4389;41.932;25.904;2023-11-21T02:49:51;9.57;;;4.37;;
8704;SDS011;4389;41.932;25.904;2023-11-21T02:52:18;8.57;;;4.37;;
8704;SDS011;4389;41.932;25.904;2023-11-21T02:54:45;8.50;;;4.53;;
8704;SDS011;4389;41.932;25.904;2023-11-21T02:57:12;5.00;;;3.80;;
8704;SDS011;4389;41.932;25.904;2023-11-21T02:59:41;8.23;;;4.73;;
8704;SDS011;4389;41.932;25.904;2023-11-21T03:02:07;5.33;;;3.50;;
8704;SDS011;4389;41.932;25.904;2023-11-21T03:04:34;4.73;;;3.30;;
8704;SDS011;4389;41.932;25.904;2023-11-21T03:07:01;4.17;;;3.60;;
8704;SDS011;4389;41.932;25.904;2023-11-21T03:09:30;47.73;;;4.87;;
8704;SDS011;4389;41.932;25.904;2023-11-21T03:11:57;16.53;;;4.43;;
8704;SDS011;4389;41.932;25.904;2023-11-21T03:14:24;9.40;;;3.37;;
8704;SDS011;4389;41.932;25.904;2023-11-21T03:16:52;7.33;;;3.50;;
8704;SDS011;4389;41.932;25.904;2023-11-21T03:19:19;4.43;;;3.47;;
8704;SDS011;4389;41.932;25.904;2023-11-21T03:21:46;4.47;;;3.40;;
8704;SDS011;4389;41.932;25.904;2023-11-21T03:24:13;4.93;;;3.47;;
8704;SDS011;4389;41.932;25.904;2023-11-21T03:26:44;6.73;;;3.60;;
8704;SDS011;4389;41.932;25.904;2023-11-21T03:29:11;6.77;;;3.70;;
8704;SDS011;4389;41.932;25.904;2023-11-21T03:31:40;7.90;;;4.03;;
8704;SDS011;4389;41.932;25.904;2023-11-21T03:34:11;10.50;;;4.00;;
8704;SDS011;4389;41.932;25.904;2023-11-21T03:36:43;16.10;;;5.00;;
8704;SDS011;4389;41.932;25.904;2023-11-21T03:39:11;8.90;;;4.47;;
8704;SDS011;4389;41.932;25.904;2023-11-21T03:41:38;6.93;;;4.53;;
8704;SDS011;4389;41.932;25.904;2023-11-21T03:44:05;5.03;;;4.03;;
8704;SDS011;4389;41.932;25.904;2023-11-21T03:46:32;14.07;;;5.17;;
8704;SDS011;4389;41.932;25.904;2023-11-21T03:48:59;7.63;;;4.40;;
8704;SDS011;4389;41.932;25.904;2023-11-21T03:51:27;8.30;;;6.43;;
8704;SDS011;4389;41.932;25.904;2023-11-21T03:53:54;18.83;;;5.67;;
8704;SDS011;4389;41.932;25.904;2023-11-21T03:56:21;7.57;;;4.97;;
8704;SDS011;4389;41.932;25.904;2023-11-21T03:58:48;7.67;;;4.40;;
8704;SDS011;4389;41.932;25.904;2023-11-21T04:01:19;5.43;;;4.20;;
8704;SDS011;4389;41.932;25.904;2023-11-21T04:03:47;6.70;;;4.33;;
8704;SDS011;4389;41.932;25.904;2023-11-21T04:06:14;9.73;;;4.87;;
8704;SDS011;4389;41.932;25.904;2023-11-21T04:08:43;5.50;;;3.93;;
8704;SDS011;4389;41.932;25.904;2023-11-21T04:11:11;12.30;;;8.57;;
8704;SDS011;4389;41.932;25.904;2023-11-21T04:13:38;11.97;;;9.00;;
8704;SDS011;4389;41.932;25.904;2023-11-21T04:16:05;10.30;;;9.27;;
8704;SDS011;4389;41.932;25.904;2023-11-21T04:18:33;11.90;;;10.17;;
8704;SDS011;4389;41.932;25.904;2023-11-21T04:21:00;13.43;;;9.57;;
8704;SDS011;4389;41.932;25.904;2023-11-21T04:23:28;14.10;;;8.93;;
8704;SDS011;4389;41.932;25.904;2023-11-21T04:25:58;15.30;;;9.53;;
8704;SDS011;4389;41.932;25.904;2023-11-21T04:28:25;14.00;;;9.77;;
8704;SDS011;4389;41.932;25.904;2023-11-21T04:30:52;12.47;;;10.00;;
8704;SDS011;4389;41.932;25.904;2023-11-21T04:33:19;12.23;;;10.17;;
8704;SDS011;4389;41.932;25.904;2023-11-21T04:35:46;13.40;;;10.33;;
8704;SDS011;4389;41.932;25.904;2023-11-21T04:38:13;14.37;;;10.53;;
8704;SDS011;4389;41.932;25.904;2023-11-21T04:40:40;15.37;;;10.73;;
8704;SDS011;4389;41.932;25.904;2023-11-21T04:43:09;15.47;;;11.10;;
8704;SDS011;4389;41.932;25.904;2023-11-21T04:45:35;14.57;;;11.10;;
8704;SDS011;4389;41.932;25.904;2023-11-21T04:48:02;15.97;;;12.17;;
8704;SDS011;4389;41.932;25.904;2023-11-21T04:50:30;20.50;;;12.93;;
8704;SDS011;4389;41.932;25.904;2023-11-21T04:52:57;23.03;;;14.03;;
8704;SDS011;4389;41.932;25.904;2023-11-21T04:55:24;15.43;;;13.43;;
8704;SDS011;4389;41.932;25.904;2023-11-21T04:57:55;17.40;;;11.15;;
8704;SDS011;4389;41.932;25.904;2023-11-21T05:00:24;21.47;;;12.43;;
8704;SDS011;4389;41.932;25.904;2023-11-21T05:02:51;33.50;;;17.97;;
8704;SDS011;4389;41.932;25.904;2023-11-21T05:05:18;25.67;;;13.57;;
8704;SDS011;4389;41.932;25.904;2023-11-21T05:07:45;68.23;;;17.17;;
8704;SDS011;4389;41.932;25.904;2023-11-21T05:10:12;38.93;;;12.77;;
8704;SDS011;4389;41.932;25.904;2023-11-21T05:12:41;29.27;;;12.53;;
8704;SDS011;4389;41.932;25.904;2023-11-21T05:15:09;35.60;;;10.00;;
8704;SDS011;4389;41.932;25.904;2023-11-21T05:17:40;24.90;;;10.90;;
8704;SDS011;4389;41.932;25.904;2023-11-21T05:20:09;14.20;;;8.80;;
8704;SDS011;4389;41.932;25.904;2023-11-21T05:22:38;23.23;;;10.47;;
8704;SDS011;4389;41.932;25.904;2023-11-21T05:25:06;18.90;;;9.83;;
8704;SDS011;4389;41.932;25.904;2023-11-21T05:27:34;20.17;;;14.27;;
8704;SDS011;4389;41.932;25.904;2023-11-21T05:30:01;25.23;;;14.00;;
8704;SDS011;4389;41.932;25.904;2023-11-21T05:32:33;17.10;;;12.60;;
8704;SDS011;4389;41.932;25.904;2023-11-21T05:35:01;16.03;;;12.77;;
8704;SDS011;4389;41.932;25.904;2023-11-21T05:37:28;20.27;;;13.60;;
8704;SDS011;4389;41.932;25.904;2023-11-21T05:39:55;18.10;;;13.90;;
8704;SDS011;4389;41.932;25.904;2023-11-21T05:42:22;18.27;;;13.67;;
8704;SDS011;4389;41.932;25.904;2023-11-21T05:44:49;17.30;;;13.43;;
8704;SDS011;4389;41.932;25.904;2023-11-21T05:47:16;23.27;;;14.43;;
8704;SDS011;4389;41.932;25.904;2023-11-21T05:49:43;23.93;;;12.60;;
8704;SDS011;4389;41.932;25.904;2023-11-21T05:52:12;18.13;;;13.73;;
8704;SDS011;4389;41.932;25.904;2023-11-21T05:54:39;14.30;;;12.70;;
8704;SDS011;4389;41.932;25.904;2023-11-21T05:57:06;14.47;;;12.77;;
8704;SDS011;4389;41.932;25.904;2023-11-21T05:59:34;18.07;;;12.60;;
8704;SDS011;4389;41.932;25.904;2023-11-21T06:02:01;20.83;;;13.57;;
8704;SDS011;4389;41.932;25.904;2023-11-21T06:04:28;21.87;;;13.43;;
8704;SDS011;4389;41.932;25.904;2023-11-21T06:06:55;21.33;;;13.73;;
8704;SDS011;4389;41.932;25.904;2023-11-21T06:09:23;21.53;;;14.23;;
8704;SDS011;4389;41.932;25.904;2023-11-21T06:11:50;21.43;;;14.80;;
8704;SDS011;4389;41.932;25.904;2023-11-21T06:14:17;24.20;;;15.33;;
8704;SDS011;4389;41.932;25.904;2023-11-21T06:16:44;22.53;;;16.50;;
8704;SDS011;4389;41.932;25.904;2023-11-21T06:19:11;29.47;;;18.03;;
8704;SDS011;4389;41.932;25.904;2023-11-21T06:21:38;26.97;;;13.50;;
8704;SDS011;4389;41.932;25.904;2023-11-21T06:24:05;20.37;;;12.50;;
8704;SDS011;4389;41.932;25.904;2023-11-21T06:26:34;13.17;;;10.33;;
8704;SDS011;4389;41.932;25.904;2023-11-21T06:29:01;17.47;;;11.17;;
8704;SDS011;4389;41.932;25.904;2023-11-21T06:31:29;13.30;;;11.07;;
8704;SDS011;4389;41.932;25.904;2023-11-21T06:33:58;17.37;;;11.70;;
8704;SDS011;4389;41.932;25.904;2023-11-21T06:36:25;19.33;;;12.63;;
8704;SDS011;4389;41.932;25.904;2023-11-21T06:38:52;23.40;;;12.33;;
8704;SDS011;4389;41.932;25.904;2023-11-21T06:41:20;18.30;;;13.57;;
8704;SDS011;4389;41.932;25.904;2023-11-21T06:43:49;15.97;;;13.67;;
8704;SDS011;4389;41.932;25.904;2023-11-21T06:46:16;14.70;;;12.27;;
8704;SDS011;4389;41.932;25.904;2023-11-21T06:48:44;19.57;;;12.90;;
8704;SDS011;4389;41.932;25.904;2023-11-21T06:51:11;25.60;;;16.00;;
8704;SDS011;4389;41.932;25.904;2023-11-21T06:53:38;21.33;;;15.40;;
8704;SDS011;4389;41.932;25.904;2023-11-21T06:56:14;19.90;;;14.47;;
8704;SDS011;4389;41.932;25.904;2023-11-21T06:58:42;23.87;;;14.13;;
8704;SDS011;4389;41.932;25.904;2023-11-21T07:01:12;16.27;;;14.27;;
8704;SDS011;4389;41.932;25.904;2023-11-21T07:03:40;22.37;;;15.17;;
8704;SDS011;4389;41.932;25.904;2023-11-21T07:06:07;18.80;;;12.63;;
8704;SDS011;4389;41.932;25.904;2023-11-21T07:08:35;20.60;;;12.73;;
8704;SDS011;4389;41.932;25.904;2023-11-21T07:11:02;27.60;;;12.77;;
8704;SDS011;4389;41.932;25.904;2023-11-21T07:13:29;19.27;;;14.30;;
8704;SDS011;4389;41.932;25.904;2023-11-21T07:15:57;55.10;;;18.37;;
8704;SDS011;4389;41.932;25.904;2023-11-21T07:18:25;19.60;;;13.47;;
8704;SDS011;4389;41.932;25.904;2023-11-21T07:20:52;32.13;;;13.40;;
8704;SDS011;4389;41.932;25.904;2023-11-21T07:23:19;16.70;;;11.83;;
8704;SDS011;4389;41.932;25.904;2023-11-21T07:25:47;20.03;;;14.87;;
8704;SDS011;4389;41.932;25.904;2023-11-21T07:28:14;17.90;;;12.93;;
8704;SDS011;4389;41.932;25.904;2023-11-21T07:30:41;18.93;;;13.90;;
8704;SDS011;4389;41.932;25.904;2023-11-21T07:33:09;19.40;;;13.30;;
8704;SDS011;4389;41.932;25.904;2023-11-21T07:35:37;22.00;;;14.73;;
8704;SDS011;4389;41.932;25.904;2023-11-21T07:38:04;17.97;;;13.83;;
8704;SDS011;4389;41.932;25.904;2023-11-21T07:40:31;20.30;;;15.80;;
8704;SDS011;4389;41.932;25.904;2023-11-21T07:42:58;27.63;;;15.33;;
8704;SDS011;4389;41.932;25.904;2023-11-21T07:45:25;21.13;;;15.40;;
8704;SDS011;4389;41.932;25.904;2023-11-21T07:47:52;27.27;;;16.23;;
8704;SDS011;4389;41.932;25.904;2023-11-21T07:50:19;35.10;;;16.57;;
8704;SDS011;4389;41.932;25.904;2023-11-21T07:52:48;20.83;;;15.00;;
8704;SDS011;4389;41.932;25.904;2023-11-21T07:55:15;28.80;;;16.80;;
8704;SDS011;4389;41.932;25.904;2023-11-21T07:57:42;26.80;;;17.47;;
8704;SDS011;4389;41.932;25.904;2023-11-21T08:00:09;31.57;;;15.60;;
8704;SDS011;4389;41.932;25.904;2023-11-21T08:02:38;23.37;;;18.83;;
8704;SDS011;4389;41.932;25.904;2023-11-21T08:05:07;23.13;;;16.37;;
8704;SDS011;4389;41.932;25.904;2023-11-21T08:07:34;22.87;;;16.10;;
8704;SDS011;4389;41.932;25.904;2023-11-21T08:10:03;19.43;;;14.53;;
8704;SDS011;4389;41.932;25.904;2023-11-21T08:12:31;30.27;;;17.40;;
8704;SDS011;4389;41.932;25.904;2023-11-21T08:14:58;37.93;;;18.00;;
8704;SDS011;4389;41.932;25.904;2023-11-21T08:17:25;22.30;;;13.77;;
8704;SDS011;4389;41.932;25.904;2023-11-21T08:19:52;18.90;;;15.07;;
8704;SDS011;4389;41.932;25.904;2023-11-21T08:22:19;18.27;;;13.60;;
8704;SDS011;4389;41.932;25.904;2023-11-21T08:24:46;20.60;;;14.60;;
8704;SDS011;4389;41.932;25.904;2023-11-21T08:27:14;27.17;;;15.43;;
8704;SDS011;4389;41.932;25.904;2023-11-21T08:29:42;19.23;;;15.50;;
8704;SDS011;4389;41.932;25.904;2023-11-21T08:32:08;21.97;;;17.57;;
8704;SDS011;4389;41.932;25.904;2023-11-21T08:34:36;21.70;;;15.50;;
8704;SDS011;4389;41.932;25.904;2023-11-21T08:37:05;22.77;;;17.07;;
8704;SDS011;4389;41.932;25.904;2023-11-21T08:39:32;23.87;;;16.70;;
8704;SDS011;4389;41.932;25.904;2023-11-21T08:42:00;50.60;;;20.93;;
8704;SDS011;4389;41.932;25.904;2023-11-21T08:44:29;42.37;;;20.97;;
8704;SDS011;4389;41.932;25.904;2023-11-21T08:46:55;24.83;;;16.83;;
8704;SDS011;4389;41.932;25.904;2023-11-21T08:49:22;39.07;;;19.30;;
8704;SDS011;4389;41.932;25.904;2023-11-21T08:51:51;34.77;;;19.00;;
8704;SDS011;4389;41.932;25.904;2023-11-21T08:54:20;27.07;;;18.03;;
8704;SDS011;4389;41.932;25.904;2023-11-21T08:56:47;39.27;;;21.43;;
8704;SDS011;4389;41.932;25.904;2023-11-21T08:59:16;31.67;;;17.67;;
8704;SDS011;4389;41.932;25.904;2023-11-21T09:01:44;37.60;;;18.50;;
8704;SDS011;4389;41.932;25.904;2023-11-21T09:04:11;31.43;;;17.33;;
8704;SDS011;4389;41.932;25.904;2023-11-21T09:06:39;18.63;;;14.07;;
8704;SDS011;4389;41.932;25.904;2023-11-21T09:09:06;25.87;;;17.33;;
8704;SDS011;4389;41.932;25.904;2023-11-21T09:11:33;32.23;;;18.23;;
8704;SDS011;4389;41.932;25.904;2023-11-21T09:14:01;18.20;;;13.70;;
8704;SDS011;4389;41.932;25.904;2023-11-21T09:16:28;23.80;;;14.80;;
8704;SDS011;4389;41.932;25.904;2023-11-21T09:18:57;23.57;;;13.83;;
8704;SDS011;4389;41.932;25.904;2023-11-21T09:21:24;25.27;;;14.73;;
8704;SDS011;4389;41.932;25.904;2023-11-21T09:23:51;28.00;;;14.93;;
8704;SDS011;4389;41.932;25.904;2023-11-21T09:26:19;22.93;;;15.30;;
8704;SDS011;4389;41.932;25.904;2023-11-21T09:28:46;26.30;;;13.80;;
8704;SDS011;4389;41.932;25.904;2023-11-21T09:31:13;17.53;;;14.93;;
8704;SDS011;4389;41.932;25.904;2023-11-21T09:33:40;27.63;;;14.93;;
8704;SDS011;4389;41.932;25.904;2023-11-21T09:36:12;20.27;;;14.00;;
8704;SDS011;4389;41.932;25.904;2023-11-21T09:38:39;13.90;;;11.10;;
8704;SDS011;4389;41.932;25.904;2023-11-21T09:41:08;18.73;;;13.03;;
8704;SDS011;4389;41.932;25.904;2023-11-21T09:43:43;18.97;;;13.80;;
8704;SDS011;4389;41.932;25.904;2023-11-21T09:46:12;19.33;;;13.87;;
8704;SDS011;4389;41.932;25.904;2023-11-21T09:48:46;27.07;;;15.10;;
8704;SDS011;4389;41.932;25.904;2023-11-21T09:51:19;22.50;;;13.97;;
8704;SDS011;4389;41.932;25.904;2023-11-21T09:53:48;24.67;;;15.33;;
8704;SDS011;4389;41.932;25.904;2023-11-21T09:56:18;24.17;;;14.97;;
8704;SDS011;4389;41.932;25.904;2023-11-21T09:58:50;25.10;;;14.47;;
8704;SDS011;4389;41.932;25.904;2023-11-21T10:01:18;26.73;;;14.33;;
8704;SDS011;4389;41.932;25.904;2023-11-21T10:03:47;18.03;;;12.57;;
8704;SDS011;4389;41.932;25.904;2023-11-21T10:06:15;17.27;;;12.20;;
8704;SDS011;4389;41.932;25.904;2023-11-21T10:08:45;19.40;;;11.93;;
8704;SDS011;4389;41.932;25.904;2023-11-21T10:11:13;18.20;;;13.13;;
8704;SDS011;4389;41.932;25.904;2023-11-21T10:13:41;13.90;;;10.27;;
8704;SDS011;4389;41.932;25.904;2023-11-21T10:16:11;19.53;;;10.50;;
8704;SDS011;4389;41.932;25.904;2023-11-21T10:18:46;15.27;;;10.73;;
8704;SDS011;4389;41.932;25.904;2023-11-21T10:21:17;18.53;;;10.30;;
8704;SDS011;4389;41.932;25.904;2023-11-21T10:23:46;18.97;;;10.73;;
8704;SDS011;4389;41.932;25.904;2023-11-21T10:26:13;15.00;;;9.10;;
8704;SDS011;4389;41.932;25.904;2023-11-21T10:28:41;13.07;;;8.70;;
8704;SDS011;4389;41.932;25.904;2023-11-21T10:31:21;12.50;;;8.40;;
8704;SDS011;4389;41.932;25.904;2023-11-21T10:33:49;12.80;;;9.63;;
8704;SDS011;4389;41.932;25.904;2023-11-21T10:36:23;11.03;;;8.87;;
8704;SDS011;4389;41.932;25.904;2023-11-21T10:38:53;14.20;;;9.93;;
8704;SDS011;4389;41.932;25.904;2023-11-21T10:41:22;32.83;;;10.30;;
8704;SDS011;4389;41.932;25.904;2023-11-21T10:43:52;17.10;;;11.27;;
8704;SDS011;4389;41.932;25.904;2023-11-21T10:46:20;11.27;;;9.40;;
8704;SDS011;4389;41.932;25.904;2023-11-21T10:48:51;14.40;;;9.43;;
8704;SDS011;4389;41.932;25.904;2023-11-21T10:51:20;22.20;;;11.20;;
8704;SDS011;4389;41.932;25.904;2023-11-21T10:53:47;23.20;;;10.77;;
8704;SDS011;4389;41.932;25.904;2023-11-21T10:56:18;50.97;;;12.13;;
8704;SDS011;4389;41.932;25.904;2023-11-21T10:58:47;16.70;;;9.17;;
8704;SDS011;4389;41.932;25.904;2023-11-21T11:01:16;13.87;;;9.13;;
8704;SDS011;4389;41.932;25.904;2023-11-21T11:03:46;16.87;;;11.00;;
8704;SDS011;4389;41.932;25.904;2023-11-21T11:06:13;13.90;;;10.37;;
8704;SDS011;4389;41.932;25.904;2023-11-21T11:08:41;15.33;;;10.90;;
8704;SDS011;4389;41.932;25.904;2023-11-21T11:11:09;19.23;;;11.27;;
8704;SDS011;4389;41.932;25.904;2023-11-21T11:13:38;20.67;;;10.80;;
8704;SDS011;4389;41.932;25.904;2023-11-21T11:16:10;16.47;;;11.83;;
8704;SDS011;4389;41.932;25.904;2023-11-21T11:18:42;18.77;;;10.93;;
8704;SDS011;4389;41.932;25.904;2023-11-21T11:21:12;12.63;;;10.10;;
8704;SDS011;4389;41.932;25.904;2023-11-21T11:23:51;11.10;;;9.30;;
8704;SDS011;4389;41.932;25.904;2023-11-21T11:26:37;56.37;;;12.97;;
8704;SDS011;4389;41.932;25.904;2023-11-21T11:29:17;26.67;;;9.93;;
8704;SDS011;4389;41.932;25.904;2023-11-21T11:31:55;15.47;;;10.87;;
8704;SDS011;4389;41.932;25.904;2023-11-21T11:34:32;13.67;;;11.87;;
8704;SDS011;4389;41.932;25.904;2023-11-21T11:37:02;11.93;;;10.10;;
8704;SDS011;4389;41.932;25.904;2023-11-21T11:39:35;20.53;;;12.37;;
8704;SDS011;4389;41.932;25.904;2023-11-21T11:42:03;15.93;;;11.40;;
8704;SDS011;4389;41.932;25.904;2023-11-21T11:44:51;13.23;;;10.90;;
8704;SDS011;4389;41.932;25.904;2023-11-21T11:47:21;16.03;;;10.37;;
8704;SDS011;4389;41.932;25.904;2023-11-21T11:50:01;21.03;;;12.27;;
8704;SDS011;4389;41.932;25.904;2023-11-21T11:52:39;19.60;;;13.40;;
8704;SDS011;4389;41.932;25.904;2023-11-21T11:55:08;16.40;;;11.60;;
8704;SDS011;4389;41.932;25.904;2023-11-21T11:57:39;16.67;;;11.83;;
8704;SDS011;4389;41.932;25.904;2023-11-21T12:00:15;20.20;;;12.30;;
8704;SDS011;4389;41.932;25.904;2023-11-21T12:02:45;16.57;;;12.33;;
8704;SDS011;4389;41.932;25.904;2023-11-21T12:05:14;15.83;;;11.17;;
8704;SDS011;4389;41.932;25.904;2023-11-21T12:07:43;17.90;;;11.90;;
8704;SDS011;4389;41.932;25.904;2023-11-21T12:10:16;19.00;;;11.70;;
8704;SDS011;4389;41.932;25.904;2023-11-21T12:12:45;20.87;;;11.10;;
8704;SDS011;4389;41.932;25.904;2023-11-21T12:15:12;20.00;;;12.10;;
8704;SDS011;4389;41.932;25.904;2023-11-21T12:17:41;21.93;;;14.63;;
8704;SDS011;4389;41.932;25.904;2023-11-21T12:20:09;16.27;;;13.47;;
8704;SDS011;4389;41.932;25.904;2023-11-21T12:22:44;14.07;;;12.10;;
8704;SDS011;4389;41.932;25.904;2023-11-21T12:25:14;15.63;;;12.60;;
8704;SDS011;4389;41.932;25.904;2023-11-21T12:27:44;17.67;;;13.30;;
8704;SDS011;4389;41.932;25.904;2023-11-21T12:30:12;20.67;;;14.30;;
8704;SDS011;4389;41.932;25.904;2023-11-21T12:32:43;17.10;;;13.30;;
8704;SDS011;4389;41.932;25.904;2023-11-21T12:35:11;22.03;;;13.67;;
8704;SDS011;4389;41.932;25.904;2023-11-21T12:37:39;20.97;;;14.33;;
8704;SDS011;4389;41.932;25.904;2023-11-21T12:40:08;24.90;;;14.47;;
8704;SDS011;4389;41.932;25.904;2023-11-21T12:42:39;18.57;;;13.77;;
8704;SDS011;4389;41.932;25.904;2023-11-21T12:45:07;18.47;;;15.03;;
8704;SDS011;4389;41.932;25.904;2023-11-21T12:47:47;21.80;;;14.10;;
8704;SDS011;4389;41.932;25.904;2023-11-21T12:50:15;21.10;;;13.73;;
8704;SDS011;4389;41.932;25.904;2023-11-21T12:52:49;21.00;;;14.67;;
8704;SDS011;4389;41.932;25.904;2023-11-21T12:55:19;16.43;;;13.63;;
8704;SDS011;4389;41.932;25.904;2023-11-21T12:57:47;21.00;;;14.87;;
8704;SDS011;4389;41.932;25.904;2023-11-21T13:00:17;17.37;;;13.27;;
8704;SDS011;4389;41.932;25.904;2023-11-21T13:02:55;22.57;;;14.43;;
8704;SDS011;4389;41.932;25.904;2023-11-21T13:05:24;21.47;;;14.23;;
8704;SDS011;4389;41.932;25.904;2023-11-21T13:07:51;20.10;;;14.97;;
8704;SDS011;4389;41.932;25.904;2023-11-21T13:10:20;19.90;;;13.73;;
8704;SDS011;4389;41.932;25.904;2023-11-21T13:12:51;20.23;;;15.40;;
8704;SDS011;4389;41.932;25.904;2023-11-21T13:15:20;26.27;;;19.20;;
8704;SDS011;4389;41.932;25.904;2023-11-21T13:17:47;18.73;;;16.00;;
8704;SDS011;4389;41.932;25.904;2023-11-21T13:20:16;19.50;;;15.07;;
8704;SDS011;4389;41.932;25.904;2023-11-21T13:22:49;21.77;;;16.77;;
8704;SDS011;4389;41.932;25.904;2023-11-21T13:25:19;22.87;;;17.40;;
8704;SDS011;4389;41.932;25.904;2023-11-21T13:27:48;25.40;;;16.97;;
8704;SDS011;4389;41.932;25.904;2023-11-21T13:30:15;24.47;;;17.23;;
8704;SDS011;4389;41.932;25.904;2023-11-21T13:32:43;21.73;;;17.03;;
8704;SDS011;4389;41.932;25.904;2023-11-21T13:35:11;22.40;;;15.97;;
8704;SDS011;4389;41.932;25.904;2023-11-21T13:37:50;24.90;;;18.37;;
8704;SDS011;4389;41.932;25.904;2023-11-21T13:40:21;21.50;;;16.67;;
8704;SDS011;4389;41.932;25.904;2023-11-21T13:42:52;26.43;;;17.47;;
8704;SDS011;4389;41.932;25.904;2023-11-21T13:45:23;29.77;;;18.37;;
8704;SDS011;4389;41.932;25.904;2023-11-21T13:48:14;24.33;;;17.43;;
8704;SDS011;4389;41.932;25.904;2023-11-21T13:50:45;27.93;;;18.87;;
8704;SDS011;4389;41.932;25.904;2023-11-21T13:53:21;25.17;;;18.17;;
8704;SDS011;4389;41.932;25.904;2023-11-21T13:55:48;27.23;;;17.80;;
8704;SDS011;4389;41.932;25.904;2023-11-21T13:58:16;28.03;;;19.07;;
8704;SDS011;4389;41.932;25.904;2023-11-21T14:00:45;22.53;;;18.23;;
8704;SDS011;4389;41.932;25.904;2023-11-21T14:03:21;30.07;;;19.33;;
8704;SDS011;4389;41.932;25.904;2023-11-21T14:06:03;33.73;;;18.33;;
8704;SDS011;4389;41.932;25.904;2023-11-21T14:08:40;20.67;;;16.83;;
8704;SDS011;4389;41.932;25.904;2023-11-21T14:11:07;27.07;;;19.03;;
8704;SDS011;4389;41.932;25.904;2023-11-21T14:13:36;29.60;;;18.03;;
8704;SDS011;4389;41.932;25.904;2023-11-21T14:16:04;24.97;;;16.20;;
8704;SDS011;4389;41.932;25.904;2023-11-21T14:18:32;26.20;;;17.37;;
8704;SDS011;4389;41.932;25.904;2023-11-21T14:21:03;23.57;;;17.67;;
8704;SDS011;4389;41.932;25.904;2023-11-21T14:23:33;23.23;;;16.03;;
8704;SDS011;4389;41.932;25.904;2023-11-21T14:26:02;20.77;;;15.77;;
8704;SDS011;4389;41.932;25.904;2023-11-21T14:50:24;27.87;;;20.20;;
8704;SDS011;4389;41.932;25.904;2023-11-21T14:53:10;31.73;;;24.70;;
8704;SDS011;4389;41.932;25.904;2023-11-21T14:55:38;35.03;;;21.77;;
8704;SDS011;4389;41.932;25.904;2023-11-21T14:58:18;24.90;;;18.70;;
8704;SDS011;4389;41.932;25.904;2023-11-21T15:00:54;29.23;;;19.90;;
8704;SDS011;4389;41.932;25.904;2023-11-21T15:03:23;26.23;;;19.23;;
8704;SDS011;4389;41.932;25.904;2023-11-21T15:06:10;25.27;;;18.30;;
8704;SDS011;4389;41.932;25.904;2023-11-21T15:08:50;19.90;;;16.70;;
8704;SDS011;4389;41.932;25.904;2023-11-21T15:11:37;21.57;;;16.03;;
8704;SDS011;4389;41.932;25.904;2023-11-21T15:14:04;21.77;;;16.63;;
8704;SDS011;4389;41.932;25.904;2023-11-21T15:16:33;28.87;;;17.13;;